Weather observations for the past three days for
Roy Hurd Memorial Airport
Imperial (Metric)
Date Time (cdt) Wind (mph) Vis. (mi.) Weather Sky Cond. Temperature (ºF) Relative Humidity Wind Chill (°F) Heat Index (°F) Pressure Precipitation (in)
Air Dwpt 6 hour altimeter (in) sea level (mb) 1 hr 3 hr 6 hr
Max. Min.
10 14:55 NE 18 G 25 10.00 Fair CLR 93.2 48.2 21% 90 29.91 0.0
10 14:35 N 22 G 29 10.00 Fair and Breezy CLR 93.2 44.6 19% 89 29.92 0.0
10 14:15 N 20 10.00 Fair CLR 91.4 42.8 18% 88 29.91 0.0
10 13:55 N 15 G 25 10.00 Fair CLR 91.4 46.4 21% 88 29.91 0.0
10 13:35 N 22 G 31 10.00 Fair and Breezy CLR 91.4 50 24% 88 29.92 0.0
10 13:15 NW 24 G 35 9.00 Fair and Breezy CLR 91.4 48.2 23% 88 29.92 0.0
10 12:55 N 22 G 30 10.00 Fair and Breezy CLR 89.6 41 18% 86 29.92 0.0
10 12:35 NW 22 G 28 10.00 Fair and Breezy CLR 91.4 42.8 18% 88 29.92 0.0
10 12:15 NW 10 10.00 Fair CLR 89.6 39.2 17% 86 29.91 0.0
10 11:55 NW 12 G 18 10.00 Fair CLR 89.6 39.2 17% 86 29.91 0.0
10 11:35 NW 13 G 20 10.00 Fair CLR 87.8 41 19% 84 29.9 0.0
10 11:15 NW 14 10.00 Fair CLR 87.8 41 19% 84 29.9 0.0
10 10:55 NW 6 10.00 Fair CLR 84.2 44.6 25% 82 29.9 0.0
10 10:35 Vrbl 6 10.00 Fair CLR 84.2 48.2 29% 82 29.89 0.0
10 10:15 Vrbl 7 10.00 Fair CLR 82.4 48.2 30% 81 29.89 0.0
10 09:55 S 8 10.00 Fair CLR 80.6 51.8 37% 80 29.88 0.0
10 09:35 S 8 10.00 Fair CLR 78.8 55.4 45% 79 29.88 0.0
10 09:15 SE 8 10.00 Fair CLR 77 57.2 51% 79 29.88 0.0
10 08:55 SE 10 10.00 Fair CLR 75.2 59 57% 78 29.86 0.0
10 08:35 SE 12 10.00 Fair CLR 73.4 60.8 65% 29.86 0.0
10 08:15 SE 8 10.00 Fair CLR 71.6 60.8 69% 29.85 0.0
10 07:55 SE 10 10.00 Fair CLR 69.8 60.8 73% 29.84 0.0
10 07:35 SE 8 10.00 Fair CLR 68 60.8 78% 29.84 0.0
10 07:15 SE 9 10.00 Fair CLR 68 60.8 78% 29.84 0.0
10 06:55 SE 9 10.00 Fair CLR 68 60.8 78% 29.84 0.0
10 06:35 SE 10 10.00 Fair CLR 68 60.8 78% 29.83 0.0
10 06:15 SE 9 10.00 Fair CLR 68 60.8 78% 29.83 0.0
10 05:55 SE 9 10.00 Fair CLR 68 60.8 78% 29.82 0.0
10 05:35 SE 9 10.00 Fair CLR 69.8 59 69% 29.82 0.0
10 05:15 SE 9 10.00 Fair CLR 69.8 59 69% 29.82 0.0
10 04:55 SE 7 10.00 Fair CLR 68 57.2 69% 29.81 0.0
10 04:30 SE 7 10.00 Fair CLR 68 57.2 69% 29.81 0.0
10 04:15 SE 8 10.00 Fair CLR 68 55.4 64% 29.81 0.0
10 03:55 SE 8 10.00 Fair CLR 68 55.4 64% 29.81 0.0
10 03:35 SE 7 10.00 Fair CLR 68 53.6 60% 29.82 0.0
10 03:15 SE 7 10.00 Fair CLR 68 53.6 60% 29.82 0.0
10 02:55 SE 7 10.00 Fair CLR 68 50 53% 29.82 0.0
10 02:35 SE 5 10.00 Fair CLR 69.8 50 50% 29.83 0.0
10 02:15 SE 7 10.00 Fair CLR 69.8 46.4 43% 29.83 0.0
10 01:55 SE 9 10.00 Fair CLR 71.6 44.6 38% 29.83 0.0
10 01:35 SE 9 10.00 Fair CLR 71.6 42.8 36% 29.83 0.0
10 01:15 SE 9 10.00 Fair CLR 73.4 41 31% 29.83 0.0
10 00:55 SE 10 10.00 Fair CLR 75.2 41 29% 77 29.83 0.0
10 00:35 SE 9 10.00 Fair CLR 77 39.2 26% 77 29.83 0.0
10 00:15 S 10 G 17 10.00 Fair CLR 77 39.2 26% 77 29.83 0.0
09 23:55 S 10 10.00 Fair CLR 77 39.2 26% 77 29.83 0.0
09 23:35 SE 8 10.00 Fair CLR 78.8 39.2 24% 78 29.83 0.0
09 23:15 SE 8 10.00 Fair CLR 78.8 39.2 24% 78 29.82 0.0
09 22:55 SE 8 10.00 Fair CLR 80.6 39.2 23% 79 29.82 0.0
09 22:35 SE 10 G 16 10.00 Fair CLR 82.4 37.4 20% 80 29.81 0.0
09 22:15 SE 10 10.00 Fair CLR 82.4 37.4 20% 80 29.8 0.0
09 21:55 SE 10 10.00 Fair CLR 84.2 37.4 19% 81 29.8 0.0
09 21:35 SE 9 10.00 Fair CLR 82.4 33.8 17% 80 29.79 0.0
09 21:15 SE 8 10.00 Fair CLR 86 32 14% 83 29.78 0.0
09 20:55 SE 9 10.00 Fair CLR 89.6 32 13% 86 29.77 0.0
09 20:35 S 9 6.00 Fair with Haze CLR 91.4 28.4 10% 87 29.77 0.0
09 20:15 S 6 10.00 Fair CLR 93.2 28.4 10% 89 29.76 0.0
09 19:55 S 7 10.00 Fair CLR 95 28.4 9% 90 29.76 0.0
09 19:35 S 6 10.00 Fair CLR 95 28.4 9% 90 29.76 0.0
09 19:15 S 10 10.00 Fair CLR 95 28.4 9% 90 29.76 0.0
09 18:55 S 8 G 15 10.00 Fair CLR 95 28.4 9% 90 29.76 0.0
09 18:35 S 8 10.00 Fair CLR 95 30.2 10% 90 29.77 0.0
09 18:15 Vrbl 6 10.00 Fair CLR 95 30.2 10% 90 29.77 0.0
09 17:55 SW 8 10.00 Fair CLR 95 32 11% 90 29.78 0.0
09 17:35 SW 8 G 15 10.00 Fair CLR 96.8 30.2 9% 92 29.78 0.0
09 17:15 SE 9 10.00 Fair CLR 95 32 11% 90 29.78 0.0
09 16:55 SW 7 G 16 10.00 Fair CLR 95 32 11% 90 29.79 0.0
09 16:35 E 8 G 15 10.00 Fair CLR 95 33.8 11% 90 29.8 0.0
09 16:15 Calm 10.00 Fair CLR 95 32 11% 90 29.81 0.0
09 15:55 SE 8 G 16 10.00 Fair CLR 95 33.8 11% 90 29.82 0.0
09 15:35 Vrbl 6 G 17 10.00 Fair CLR 95 33.8 11% 90 29.83 0.0
09 15:15 Vrbl 5 G 13 10.00 Fair CLR 93.2 33.8 12% 89 29.84 0.0
09 14:55 S 8 G 16 10.00 Fair CLR 93.2 35.6 13% 89 29.85 0.0
09 14:35 W 8 G 17 10.00 Fair CLR 93.2 37.4 14% 89 29.86 0.0
09 14:15 Vrbl 6 G 16 10.00 Fair CLR 91.4 39.2 16% 87 29.86 0.0
09 13:55 Vrbl 3 G 12 10.00 Fair CLR 91.4 41 17% 87 29.87 0.0
09 13:35 S 5 G 12 10.00 Fair CLR 89.6 41 18% 86 29.88 0.0
09 13:15 S 8 G 17 10.00 Fair CLR 89.6 42.8 20% 86 29.89 0.0
09 12:55 SW 8 10.00 Fair CLR 87.8 42.8 21% 84 29.89 0.0
09 12:35 Vrbl 7 10.00 Fair CLR 86 44.6 24% 83 29.9 0.0
09 12:15 S 7 G 13 10.00 Fair CLR 86 44.6 24% 83 29.91 0.0
09 11:55 S 8 G 14 10.00 Fair CLR 86 44.6 24% 83 29.91 0.0
09 11:35 S 9 G 15 10.00 Fair CLR 84.2 44.6 25% 82 29.91 0.0
09 11:15 S 13 10.00 Fair CLR 84.2 44.6 25% 82 29.91 0.0
09 10:55 S 8 10.00 Fair CLR 80.6 46.4 30% 80 29.92 0.0
09 10:35 SE 8 10.00 Fair CLR 78.8 48.2 34% 79 29.92 0.0
09 10:15 Vrbl 6 10.00 Fair CLR 75.2 51.8 44% 78 29.93 0.0
09 09:55 Vrbl 3 10.00 Fair CLR 73.4 55.4 53% 29.93 0.0
09 09:35 S 3 10.00 Fair CLR 69.8 60.8 73% 29.94 0.0
09 09:15 Calm 9.00 Fair CLR 68 60.8 78% 29.94 0.0
09 08:55 Calm 9.00 Fair CLR 66.2 60.8 83% 29.94 0.0
09 08:30 Calm 7.00 Fair CLR 64.4 60.8 88% 29.94 0.0
09 08:15 SE 6 7.00 Fair CLR 62.6 60.8 94% 29.92 0.0
09 07:55 NW 5 8.00 Fair CLR 60.8 59 94% 29.94 0.0
09 07:35 Calm 8.00 Fair CLR 59 59 100% 29.91 0.0
09 07:15 SE 6 8.00 Partly Cloudy SCT003 59 59 100% 29.9 0.0
09 06:55 SE 6 9.00 Mostly Cloudy BKN002 60.8 59 94% 29.89 0.0
09 06:35 SE 8 9.00 Partly Cloudy SCT002 60.8 57.2 88% 29.88 0.0
09 06:15 SE 8 10.00 Fair CLR 59 57.2 94% 29.89 0.0
09 05:55 SE 7 10.00 Fair CLR 60.8 57.2 88% 29.9 0.0
09 05:35 E 7 10.00 Fair CLR 60.8 57.2 88% 29.89 0.0
09 05:15 E 7 10.00 Fair CLR 60.8 55.4 83% 29.88 0.0
09 04:55 SE 7 10.00 Fair CLR 60.8 55.4 83% 29.88 0.0
09 04:35 E 9 10.00 Fair CLR 62.6 51.8 68% 29.89 0.0
09 04:15 E 5 G 14 10.00 Fair CLR 62.6 50 64% 29.88 0.0
09 03:55 SE 3 10.00 Fair CLR 62.6 50 64% 29.87 0.0
09 03:35 SE 5 10.00 Fair CLR 62.6 51.8 68% 29.87 0.0
09 03:15 Calm 10.00 Fair CLR 64.4 50 60% 29.87 0.0
09 02:55 Calm 10.00 Fair CLR 64.4 50 60% 29.87 0.0
09 02:35 SE 3 10.00 Fair CLR 64.4 50 60% 29.86 0.0
09 02:15 S 6 10.00 Fair CLR 66.2 48.2 52% 29.87 0.0
09 01:55 SE 7 10.00 Fair CLR 68 44.6 43% 29.86 0.0
09 01:35 N 5 10.00 Fair CLR 68 44.6 43% 29.85 0.0
09 01:15 Calm 10.00 Fair CLR 69.8 44.6 40% 29.85 0.0
09 00:55 Calm 10.00 Fair CLR 69.8 44.6 40% 29.85 0.0
09 00:35 NW 5 10.00 Fair CLR 71.6 46.4 41% 29.85 0.0
09 00:15 W 5 10.00 Fair CLR 71.6 46.4 41% 29.86 0.0
08 23:55 W 7 10.00 Fair CLR 73.4 48.2 41% 29.86 0.0
08 23:35 W 6 10.00 Fair CLR 73.4 50 44% 29.86 0.0
08 23:15 W 6 10.00 Fair CLR 73.4 51.8 47% 29.85 0.0
08 22:50 W 3 10.00 Fair CLR 73.4 51.8 47% 29.86 0.0
08 22:35 Calm 10.00 Fair CLR 75.2 51.8 44% 78 29.85 0.0
08 22:15 S 5 10.00 Fair CLR 75.2 51.8 44% 78 29.84 0.0
08 21:55 S 5 10.00 Fair CLR 77 53.6 44% 78 29.84 0.0
08 21:35 SW 7 10.00 Fair CLR 78.8 53.6 42% 79 29.84 0.0
08 21:10 SW 9 10.00 Fair CLR 80.6 51.8 37% 80 29.83 0.0
08 20:55 S 9 G 15 10.00 Fair CLR 80.6 53.6 39% 80 29.82 0.0
08 20:35 S 9 G 17 10.00 Fair CLR 82.4 50 32% 81 29.82 0.0
08 20:10 S 10 G 18 10.00 Fair CLR 82.4 48.2 30% 81 29.82 0.0
08 19:55 S 12 10.00 Fair CLR 84.2 50 31% 82 29.81 0.0
08 19:35 S 12 10.00 Fair CLR 84.2 50 31% 82 29.8 0.0
08 19:15 S 8 10.00 Fair CLR 84.2 50 31% 82 29.8 0.0
08 18:55 S 8 7.00 Fair CLR 84.2 50 31% 82 29.79 0.0
08 18:35 S 6 10.00 Fair CLR 84.2 51.8 33% 82 29.79 0.0
08 18:15 S 6 10.00 Fair CLR 84.2 51.8 33% 82 29.79 0.0
08 17:50 S 7 10.00 Fair CLR 84.2 53.6 35% 83 29.78 0.0
08 17:35 Vrbl 7 10.00 Fair CLR 84.2 53.6 35% 83 29.78 0.0
08 17:15 Calm 10.00 Fair CLR 84.2 51.8 33% 82 29.78 0.0
08 16:55 E 5 10.00 Fair CLR 84.2 53.6 35% 83 29.79 0.0
08 16:35 Vrbl 5 10.00 Fair CLR 86 53.6 33% 84 29.8 0.0
08 16:15 Vrbl 5 10.00 Fair CLR 82.4 55.4 40% 82 29.8 0.0
08 15:55 Vrbl 3 10.00 Fair CLR 82.4 55.4 40% 82 29.81 0.0
08 15:35 NE 5 10.00 Fair CLR 82.4 55.4 40% 82 29.82 0.0
08 15:15 NE 6 G 13 10.00 Fair CLR 80.6 55.4 42% 81 29.83 0.0
08 14:55 Vrbl 5 10.00 Fair CLR 78.8 57.2 48% 80 29.84 0.0
08 14:35 Calm 10.00 Fair CLR 77 57.2 51% 79 29.85 0.0
08 14:10 Calm 10.00 Fair CLR 77 59 54% 79 29.86 0.0
08 13:55 Vrbl 5 10.00 Fair CLR 75.2 59 57% 78 29.87 0.0
08 13:35 Calm 10.00 Fair CLR 73.4 59 61% 29.88 0.0
08 13:15 Vrbl 3 10.00 Fair CLR 71.6 60.8 69% 29.89 0.0
08 12:55 Calm 10.00 A Few Clouds FEW022 71.6 60.8 69% 29.9 0.0
08 12:35 Calm 10.00 Mostly Cloudy BKN021 68 60.8 78% 29.91 0.0
08 12:15 E 3 10.00 Overcast OVC019 69.8 60.8 73% 29.92 0.0
08 11:55 Vrbl 5 10.00 Overcast OVC018 68 60.8 78% 29.92 0.0
08 11:35 Calm 10.00 Overcast OVC017 66.2 59 78% 29.93 0.0
08 11:15 Calm 10.00 Overcast OVC016 66.2 59 78% 29.94 0.0
08 10:55 Vrbl 5 10.00 Overcast OVC015 66.2 59 78% 29.94 0.0
08 10:35 Calm 10.00 Overcast OVC014 64.4 59 83% 29.94 0.0
08 10:15 SE 8 10.00 Overcast OVC013 62.6 59 88% 29.94 0.0
08 09:55 SE 6 10.00 Overcast OVC013 62.6 59 88% 29.94 0.0
08 09:30 SE 7 10.00 Overcast OVC012 62.6 59 88% 29.94 0.0
08 09:15 SE 7 10.00 Overcast OVC012 62.6 59 88% 29.94 0.0
08 08:55 SE 6 10.00 Overcast OVC012 62.6 59 88% 29.95 0.0
08 08:35 Vrbl 5 10.00 Overcast OVC011 62.6 59 88% 29.94 0.0
08 08:15 Vrbl 6 10.00 Overcast OVC011 60.8 59 94% 29.94 0.0
08 07:55 SE 8 10.00 Overcast OVC011 60.8 59 94% 29.93 0.0
08 07:35 SE 6 10.00 Overcast OVC010 60.8 59 94% 29.92 0.0
08 07:15 S 8 10.00 Overcast OVC011 60.8 59 94% 29.92 0.0
08 06:55 SE 7 10.00 Overcast OVC012 60.8 59 94% 29.92 0.0
08 06:35 S 7 10.00 Overcast OVC012 60.8 59 94% 29.92 0.0
08 06:15 SE 8 G 15 10.00 Overcast OVC012 62.6 59 88% 29.93 0.0
08 05:55 SE 9 10.00 Overcast OVC012 62.6 59 88% 29.92 0.0
08 05:35 SE 9 10.00 Overcast OVC013 60.8 59 94% 29.92 0.0
08 05:15 SE 8 10.00 Overcast OVC013 62.6 59 88% 29.92 0.0
08 04:55 SE 12 10.00 Overcast OVC013 62.6 59 88% 29.92 0.0
08 04:35 SE 9 10.00 Overcast OVC014 62.6 59 88% 29.92 0.0
08 04:15 SE 10 10.00 Overcast OVC015 62.6 59 88% 29.93 0.0
08 03:55 SE 6 10.00 Overcast OVC015 62.6 57.2 83% 29.93 0.0
08 03:30 E 5 10.00 Overcast OVC013 62.6 57.2 83% 29.95 0.0
08 03:15 SE 3 10.00 Overcast OVC014 62.6 57.2 83% 29.94 0.0
08 02:55 E 5 10.00 Overcast OVC016 62.6 57.2 83% 29.94 0.0
08 02:35 Vrbl 5 10.00 Overcast OVC017 60.8 57.2 88% 29.95 0.0
08 02:15 SE 6 10.00 Overcast OVC017 60.8 57.2 88% 29.95 0.0
08 01:55 E 5 10.00 Overcast OVC015 60.8 57.2 88% 29.96 0.0
08 01:35 E 6 10.00 Partly Cloudy SCT017 60.8 57.2 88% 29.97 0.0
08 01:15 SE 7 10.00 Fair CLR 59 55.4 88% 29.97 0.0
08 00:55 SE 7 10.00 Fair CLR 60.8 55.4 83% 29.97 0.0
08 00:35 SE 9 10.00 Fair CLR 60.8 55.4 83% 29.96 0.0
08 00:15 SE 7 G 16 10.00 Fair CLR 60.8 55.4 83% 29.96 0.0
07 23:55 SE 12 10.00 Fair CLR 62.6 55.4 77% 29.97 0.0
07 23:35 SE 12 10.00 Fair CLR 62.6 55.4 77% 29.98 0.0
07 23:15 SE 9 G 16 10.00 Fair CLR 64.4 53.6 68% 29.98 0.0
07 22:55 SE 12 G 17 10.00 Fair CLR 64.4 50 60% 29.98 0.0
07 22:35 SE 13 10.00 Partly Cloudy SCT035 64.4 48.2 56% 29.98 0.0
07 22:15 SE 10 10.00 Overcast OVC035 66.2 48.2 52% 29.98 0.0
07 21:55 SE 13 10.00 Overcast OVC035 68 48.2 49% 29.98 0.0
07 21:35 SE 8 10.00 Mostly Cloudy BKN036 68 48.2 49% 29.98 0.0
07 21:10 SE 10 G 17 10.00 A Few Clouds FEW035 68 48.2 49% 29.96 0.0
07 20:55 SE 13 10.00 Partly Cloudy SCT035 68 48.2 49% 29.95 0.0
07 20:35 SE 10 G 18 10.00 A Few Clouds FEW038 69.8 48.2 46% 29.95 0.0
07 20:15 S 15 10.00 A Few Clouds FEW038 71.6 48.2 44% 29.95 0.0
07 19:55 SE 12 G 18 10.00 Fair CLR 73.4 50 44% 29.94 0.0
07 19:35 SE 16 10.00 Fair CLR 73.4 50 44% 29.94 0.0
07 19:15 SE 9 G 17 10.00 Fair CLR 75.2 50 41% 78 29.95 0.0
07 18:55 SE 12 10.00 Fair CLR 75.2 50 41% 78 29.94 0.0
07 18:35 SE 9 G 17 10.00 Partly Cloudy FEW050 SCT070 75.2 48.2 39% 77 29.94 0.0
07 18:15 SE 10 G 17 10.00 Mostly Cloudy BKN050 BKN070 75.2 48.2 39% 77 29.95 0.0
07 17:55 SE 15 G 21 10.00 Fair CLR 75.2 48.2 39% 77 29.95 0.0
07 17:35 SE 13 10.00 Fair CLR 75.2 48.2 39% 77 29.96 0.0
07 17:15 SE 13 G 21 10.00 A Few Clouds FEW055 FEW070 FEW080 75.2 48.2 39% 77 29.96 0.0
07 16:55 SE 15 10.00 Mostly Cloudy SCT055 BKN070 BKN080 75.2 48.2 39% 77 29.97 0.0
07 16:35 SE 8 G 14 10.00 Mostly Cloudy SCT050 SCT065 BKN080 77 48.2 36% 78 29.97 0.0
07 16:10 E 12 G 18 10.00 Overcast BKN050 BKN070 OVC085 77 48.2 36% 78 29.99 0.0
07 15:55 SE 8 G 15 10.00 Mostly Cloudy SCT070 BKN085 77 48.2 36% 78 29.99 0.0
07 15:35 SE 9 10.00 Mostly Cloudy BKN085 75.2 48.2 39% 77 30 0.0
07 15:15 Vrbl 6 10.00 A Few Clouds FEW080 75.2 48.2 39% 77 30.01 0.0
Date Time (cdt) Wind (mph) Vis. (mi.) Weather Sky Cond. Air Dwpt Max. Min. Relative Humidity Wind Chill (°F) Heat Index (°F) altimeter (in) sea level (mb) 1 hr 3 hr 6 hr
6 hour
Temperature (ºF) Pressure Precipitation (in)